sensor_id;sensor_type;location;lat;lon;timestamp;pressure;altitude;pressure_sealevel;temperature;humidity
25944;BME280;13742;49.306;8.636;2022-10-31T00:00:46;100942.88;;;14.32;90.92
25944;BME280;13742;49.306;8.636;2022-10-31T00:01:46;100945.74;;;14.32;90.72
25944;BME280;13742;49.306;8.636;2022-10-31T00:02:46;100943.60;;;14.32;90.99
25944;BME280;13742;49.306;8.636;2022-10-31T00:03:47;100946.80;;;14.31;90.92
25944;BME280;13742;49.306;8.636;2022-10-31T00:04:46;100944.97;;;14.31;90.91
25944;BME280;13742;49.306;8.636;2022-10-31T00:05:47;100944.82;;;14.32;91.30
25944;BME280;13742;49.306;8.636;2022-10-31T00:06:46;100950.06;;;14.31;90.93
25944;BME280;13742;49.306;8.636;2022-10-31T00:07:46;100944.75;;;14.31;90.92
25944;BME280;13742;49.306;8.636;2022-10-31T00:08:47;100941.34;;;14.31;90.88
25944;BME280;13742;49.306;8.636;2022-10-31T00:09:46;100940.70;;;14.31;90.93
25944;BME280;13742;49.306;8.636;2022-10-31T00:10:46;100941.19;;;14.30;90.92
25944;BME280;13742;49.306;8.636;2022-10-31T00:11:46;100943.16;;;14.29;90.90
25944;BME280;13742;49.306;8.636;2022-10-31T00:12:46;100942.94;;;14.30;91.18
25944;BME280;13742;49.306;8.636;2022-10-31T00:13:46;100940.61;;;14.30;91.25
25944;BME280;13742;49.306;8.636;2022-10-31T00:14:46;100941.28;;;14.30;91.14
25944;BME280;13742;49.306;8.636;2022-10-31T00:15:46;100936.89;;;14.28;90.98
25944;BME280;13742;49.306;8.636;2022-10-31T00:16:46;100940.19;;;14.27;90.85
25944;BME280;13742;49.306;8.636;2022-10-31T00:17:46;100937.87;;;14.27;90.91
25944;BME280;13742;49.306;8.636;2022-10-31T00:18:53;100935.80;;;14.26;90.88
25944;BME280;13742;49.306;8.636;2022-10-31T00:19:46;100934.77;;;14.27;90.99
25944;BME280;13742;49.306;8.636;2022-10-31T00:20:46;100931.81;;;14.26;91.18
25944;BME280;13742;49.306;8.636;2022-10-31T00:21:46;100930.54;;;14.26;91.25
25944;BME280;13742;49.306;8.636;2022-10-31T00:22:46;100934.91;;;14.26;91.07
25944;BME280;13742;49.306;8.636;2022-10-31T00:23:46;100930.84;;;14.24;90.72
25944;BME280;13742;49.306;8.636;2022-10-31T00:24:46;100935.02;;;14.24;90.67
25944;BME280;13742;49.306;8.636;2022-10-31T00:25:46;100935.08;;;14.23;90.82
25944;BME280;13742;49.306;8.636;2022-10-31T00:26:46;100932.73;;;14.23;90.54
25944;BME280;13742;49.306;8.636;2022-10-31T00:27:46;100934.38;;;14.22;90.80
25944;BME280;13742;49.306;8.636;2022-10-31T00:28:46;100933.48;;;14.21;90.92
25944;BME280;13742;49.306;8.636;2022-10-31T00:29:46;100934.17;;;14.20;90.83
25944;BME280;13742;49.306;8.636;2022-10-31T00:30:46;100933.77;;;14.18;90.66
25944;BME280;13742;49.306;8.636;2022-10-31T00:31:46;100937.58;;;14.18;90.86
25944;BME280;13742;49.306;8.636;2022-10-31T00:32:46;100935.73;;;14.17;90.76
25944;BME280;13742;49.306;8.636;2022-10-31T00:33:46;100930.42;;;14.14;90.64
25944;BME280;13742;49.306;8.636;2022-10-31T00:34:46;100934.46;;;14.13;91.05
25944;BME280;13742;49.306;8.636;2022-10-31T00:35:49;100933.06;;;14.12;90.71
25944;BME280;13742;49.306;8.636;2022-10-31T00:36:46;100933.65;;;14.11;90.75
25944;BME280;13742;49.306;8.636;2022-10-31T00:37:46;100931.86;;;14.10;90.96
25944;BME280;13742;49.306;8.636;2022-10-31T00:38:46;100934.63;;;14.10;90.82
25944;BME280;13742;49.306;8.636;2022-10-31T00:39:48;100934.34;;;14.09;90.82
25944;BME280;13742;49.306;8.636;2022-10-31T00:40:46;100932.56;;;14.09;91.27
25944;BME280;13742;49.306;8.636;2022-10-31T00:41:46;100933.19;;;14.07;91.12
25944;BME280;13742;49.306;8.636;2022-10-31T00:42:46;100934.16;;;14.06;91.10
25944;BME280;13742;49.306;8.636;2022-10-31T00:43:46;100935.09;;;14.05;91.03
25944;BME280;13742;49.306;8.636;2022-10-31T00:44:46;100935.83;;;14.03;90.93
25944;BME280;13742;49.306;8.636;2022-10-31T00:45:46;100937.98;;;14.01;90.80
25944;BME280;13742;49.306;8.636;2022-10-31T00:46:46;100937.51;;;14.01;91.01
25944;BME280;13742;49.306;8.636;2022-10-31T00:47:46;100936.38;;;14.00;91.06
25944;BME280;13742;49.306;8.636;2022-10-31T00:48:46;100935.48;;;13.99;90.76
25944;BME280;13742;49.306;8.636;2022-10-31T00:49:46;100936.82;;;13.98;91.04
25944;BME280;13742;49.306;8.636;2022-10-31T00:50:46;100938.74;;;13.97;91.07
25944;BME280;13742;49.306;8.636;2022-10-31T00:51:46;100936.84;;;13.96;91.25
25944;BME280;13742;49.306;8.636;2022-10-31T00:52:46;100940.77;;;13.95;91.15
25944;BME280;13742;49.306;8.636;2022-10-31T00:53:46;100937.16;;;13.94;91.11
25944;BME280;13742;49.306;8.636;2022-10-31T00:54:46;100938.88;;;13.94;91.11
25944;BME280;13742;49.306;8.636;2022-10-31T00:55:46;100937.97;;;13.94;91.09
25944;BME280;13742;49.306;8.636;2022-10-31T00:56:46;100939.29;;;13.94;91.10
25944;BME280;13742;49.306;8.636;2022-10-31T00:57:46;100938.16;;;13.93;91.17
25944;BME280;13742;49.306;8.636;2022-10-31T00:58:46;100936.89;;;13.93;91.22
25944;BME280;13742;49.306;8.636;2022-10-31T00:59:46;100936.98;;;13.92;91.02
25944;BME280;13742;49.306;8.636;2022-10-31T01:00:47;100935.77;;;13.92;91.43
25944;BME280;13742;49.306;8.636;2022-10-31T01:01:46;100941.22;;;13.91;91.02
25944;BME280;13742;49.306;8.636;2022-10-31T01:02:46;100937.59;;;13.92;91.70
25944;BME280;13742;49.306;8.636;2022-10-31T01:03:46;100939.70;;;13.92;91.59
25944;BME280;13742;49.306;8.636;2022-10-31T01:04:46;100941.08;;;13.91;91.31
25944;BME280;13742;49.306;8.636;2022-10-31T01:05:54;100944.83;;;13.90;91.53
25944;BME280;13742;49.306;8.636;2022-10-31T01:06:46;100944.60;;;13.91;91.54
25944;BME280;13742;49.306;8.636;2022-10-31T01:07:46;100944.91;;;13.90;91.33
25944;BME280;13742;49.306;8.636;2022-10-31T01:08:46;100944.98;;;13.91;91.51
25944;BME280;13742;49.306;8.636;2022-10-31T01:09:46;100943.55;;;13.91;91.68
25944;BME280;13742;49.306;8.636;2022-10-31T01:10:46;100944.84;;;13.89;91.91
25944;BME280;13742;49.306;8.636;2022-10-31T01:11:46;100942.09;;;13.89;91.96
25944;BME280;13742;49.306;8.636;2022-10-31T01:12:47;100943.18;;;13.89;92.01
25944;BME280;13742;49.306;8.636;2022-10-31T01:13:46;100944.92;;;13.89;92.16
25944;BME280;13742;49.306;8.636;2022-10-31T01:14:46;100946.55;;;13.89;92.17
25944;BME280;13742;49.306;8.636;2022-10-31T01:15:52;100947.69;;;13.90;92.19
25944;BME280;13742;49.306;8.636;2022-10-31T01:16:46;100945.98;;;13.90;92.15
25944;BME280;13742;49.306;8.636;2022-10-31T01:17:46;100950.56;;;13.89;91.88
25944;BME280;13742;49.306;8.636;2022-10-31T01:18:46;100950.44;;;13.89;91.93
25944;BME280;13742;49.306;8.636;2022-10-31T01:19:46;100950.02;;;13.88;91.66
25944;BME280;13742;49.306;8.636;2022-10-31T01:20:46;100947.92;;;13.87;91.57
25944;BME280;13742;49.306;8.636;2022-10-31T01:21:46;100947.84;;;13.87;91.92
25944;BME280;13742;49.306;8.636;2022-10-31T01:22:46;100944.97;;;13.87;91.67
25944;BME280;13742;49.306;8.636;2022-10-31T01:23:46;100947.15;;;13.88;91.62
25944;BME280;13742;49.306;8.636;2022-10-31T01:24:46;100944.58;;;13.87;91.49
25944;BME280;13742;49.306;8.636;2022-10-31T01:25:46;100944.86;;;13.86;91.55
25944;BME280;13742;49.306;8.636;2022-10-31T01:26:46;100947.95;;;13.87;91.51
25944;BME280;13742;49.306;8.636;2022-10-31T01:27:46;100948.67;;;13.86;91.53
25944;BME280;13742;49.306;8.636;2022-10-31T01:28:47;100949.89;;;13.87;91.67
25944;BME280;13742;49.306;8.636;2022-10-31T01:29:46;100948.34;;;13.86;91.65
25944;BME280;13742;49.306;8.636;2022-10-31T01:30:46;100948.92;;;13.87;91.66
25944;BME280;13742;49.306;8.636;2022-10-31T01:31:46;100947.27;;;13.86;91.51
25944;BME280;13742;49.306;8.636;2022-10-31T01:32:46;100948.05;;;13.86;91.24
25944;BME280;13742;49.306;8.636;2022-10-31T01:33:46;100946.41;;;13.84;91.11
25944;BME280;13742;49.306;8.636;2022-10-31T01:34:46;100951.08;;;13.85;91.17
25944;BME280;13742;49.306;8.636;2022-10-31T01:35:46;100946.63;;;13.84;91.27
25944;BME280;13742;49.306;8.636;2022-10-31T01:36:50;100948.98;;;13.83;91.10
25944;BME280;13742;49.306;8.636;2022-10-31T01:37:46;100947.20;;;13.85;91.41
25944;BME280;13742;49.306;8.636;2022-10-31T01:38:47;100950.63;;;13.85;91.27
25944;BME280;13742;49.306;8.636;2022-10-31T01:39:47;100949.39;;;13.84;91.32
25944;BME280;13742;49.306;8.636;2022-10-31T01:40:46;100951.06;;;13.82;91.46
25944;BME280;13742;49.306;8.636;2022-10-31T01:41:48;100953.89;;;13.79;91.68
25944;BME280;13742;49.306;8.636;2022-10-31T01:42:46;100951.93;;;13.78;91.69
25944;BME280;13742;49.306;8.636;2022-10-31T01:43:54;100953.45;;;13.79;91.57
25944;BME280;13742;49.306;8.636;2022-10-31T01:45:49;100954.77;;;13.76;91.12
25944;BME280;13742;49.306;8.636;2022-10-31T01:47:46;100949.60;;;13.75;91.55
25944;BME280;13742;49.306;8.636;2022-10-31T01:48:46;100950.97;;;13.74;91.39
25944;BME280;13742;49.306;8.636;2022-10-31T01:49:48;100954.80;;;13.75;91.46
25944;BME280;13742;49.306;8.636;2022-10-31T01:50:46;100952.08;;;13.74;91.23
25944;BME280;13742;49.306;8.636;2022-10-31T01:51:53;100951.66;;;13.73;91.12
25944;BME280;13742;49.306;8.636;2022-10-31T01:52:46;100951.16;;;13.73;91.04
25944;BME280;13742;49.306;8.636;2022-10-31T01:53:46;100948.86;;;13.72;91.12
25944;BME280;13742;49.306;8.636;2022-10-31T01:54:51;100949.22;;;13.70;91.14
25944;BME280;13742;49.306;8.636;2022-10-31T01:55:46;100946.53;;;13.68;91.27
25944;BME280;13742;49.306;8.636;2022-10-31T01:56:51;100949.09;;;13.67;91.54
25944;BME280;13742;49.306;8.636;2022-10-31T01:57:46;100946.25;;;13.66;91.32
25944;BME280;13742;49.306;8.636;2022-10-31T01:58:46;100947.39;;;13.64;91.27
25944;BME280;13742;49.306;8.636;2022-10-31T01:59:48;100946.35;;;13.63;91.23
25944;BME280;13742;49.306;8.636;2022-10-31T02:00:47;100950.11;;;13.62;91.32
25944;BME280;13742;49.306;8.636;2022-10-31T02:01:46;100948.50;;;13.60;91.07
25944;BME280;13742;49.306;8.636;2022-10-31T02:02:46;100946.60;;;13.59;91.21
25944;BME280;13742;49.306;8.636;2022-10-31T02:03:46;100948.61;;;13.57;91.02
25944;BME280;13742;49.306;8.636;2022-10-31T02:04:46;100945.69;;;13.55;91.12
25944;BME280;13742;49.306;8.636;2022-10-31T02:05:46;100947.27;;;13.54;91.29
25944;BME280;13742;49.306;8.636;2022-10-31T02:06:47;100948.61;;;13.52;91.11
25944;BME280;13742;49.306;8.636;2022-10-31T02:08:46;100947.53;;;13.48;91.00
25944;BME280;13742;49.306;8.636;2022-10-31T02:09:46;100946.53;;;13.45;90.78
25944;BME280;13742;49.306;8.636;2022-10-31T02:10:46;100947.40;;;13.44;90.73
25944;BME280;13742;49.306;8.636;2022-10-31T02:11:46;100947.52;;;13.43;90.66
25944;BME280;13742;49.306;8.636;2022-10-31T02:12:46;100948.95;;;13.42;90.64
25944;BME280;13742;49.306;8.636;2022-10-31T02:13:46;100944.60;;;13.41;90.70
25944;BME280;13742;49.306;8.636;2022-10-31T02:14:46;100946.02;;;13.40;90.66
25944;BME280;13742;49.306;8.636;2022-10-31T02:15:47;100947.70;;;13.40;90.67
25944;BME280;13742;49.306;8.636;2022-10-31T02:16:46;100942.94;;;13.38;90.38
25944;BME280;13742;49.306;8.636;2022-10-31T02:17:46;100945.97;;;13.38;90.47
25944;BME280;13742;49.306;8.636;2022-10-31T02:18:46;100945.09;;;13.37;90.57
25944;BME280;13742;49.306;8.636;2022-10-31T02:20:55;100943.53;;;13.35;90.36
25944;BME280;13742;49.306;8.636;2022-10-31T02:21:51;100940.69;;;13.34;90.50
25944;BME280;13742;49.306;8.636;2022-10-31T02:22:52;100944.84;;;13.34;90.65
25944;BME280;13742;49.306;8.636;2022-10-31T02:24:52;100939.86;;;13.34;90.65
25944;BME280;13742;49.306;8.636;2022-10-31T02:29:54;100939.06;;;13.33;90.88
25944;BME280;13742;49.306;8.636;2022-10-31T02:31:49;100940.02;;;13.31;91.09
25944;BME280;13742;49.306;8.636;2022-10-31T02:32:50;100937.90;;;13.30;90.89
25944;BME280;13742;49.306;8.636;2022-10-31T02:36:05;100933.28;;;13.29;90.98
25944;BME280;13742;49.306;8.636;2022-10-31T02:36:50;100932.84;;;13.29;91.18
25944;BME280;13742;49.306;8.636;2022-10-31T02:38:56;100930.41;;;13.29;91.53
25944;BME280;13742;49.306;8.636;2022-10-31T02:41:52;100931.83;;;13.28;91.32
25944;BME280;13742;49.306;8.636;2022-10-31T02:42:48;100931.81;;;13.27;91.46
25944;BME280;13742;49.306;8.636;2022-10-31T02:43:54;100929.19;;;13.26;91.42
25944;BME280;13742;49.306;8.636;2022-10-31T02:47:46;100928.67;;;13.28;91.77
25944;BME280;13742;49.306;8.636;2022-10-31T02:48:46;100927.66;;;13.27;91.58
25944;BME280;13742;49.306;8.636;2022-10-31T02:49:56;100925.39;;;13.27;91.56
25944;BME280;13742;49.306;8.636;2022-10-31T02:50:49;100923.66;;;13.26;91.58
25944;BME280;13742;49.306;8.636;2022-10-31T02:51:46;100922.50;;;13.26;91.57
25944;BME280;13742;49.306;8.636;2022-10-31T02:52:49;100924.73;;;13.27;91.62
25944;BME280;13742;49.306;8.636;2022-10-31T02:53:46;100919.23;;;13.26;91.61
25944;BME280;13742;49.306;8.636;2022-10-31T02:54:46;100924.62;;;13.27;91.57
25944;BME280;13742;49.306;8.636;2022-10-31T02:56:46;100926.48;;;13.26;91.38
25944;BME280;13742;49.306;8.636;2022-10-31T02:57:46;100926.21;;;13.24;91.57
25944;BME280;13742;49.306;8.636;2022-10-31T02:58:49;100927.95;;;13.25;91.28
25944;BME280;13742;49.306;8.636;2022-10-31T02:59:47;100931.91;;;13.24;91.28
25944;BME280;13742;49.306;8.636;2022-10-31T03:00:49;100928.75;;;13.24;91.27
25944;BME280;13742;49.306;8.636;2022-10-31T03:03:07;100931.03;;;13.22;91.03
25944;BME280;13742;49.306;8.636;2022-10-31T03:09:50;100928.54;;;13.15;90.91
25944;BME280;13742;49.306;8.636;2022-10-31T03:12:52;100932.32;;;13.11;91.68
25944;BME280;13742;49.306;8.636;2022-10-31T03:13:47;100931.27;;;13.10;91.63
25944;BME280;13742;49.306;8.636;2022-10-31T03:14:52;100931.22;;;13.09;91.89
25944;BME280;13742;49.306;8.636;2022-10-31T03:15:48;100932.38;;;13.05;92.00
25944;BME280;13742;49.306;8.636;2022-10-31T03:16:47;100936.02;;;13.05;91.91
25944;BME280;13742;49.306;8.636;2022-10-31T03:18:50;100936.02;;;13.01;91.88
25944;BME280;13742;49.306;8.636;2022-10-31T03:19:47;100933.91;;;12.98;92.11
25944;BME280;13742;49.306;8.636;2022-10-31T03:22:46;100933.53;;;12.96;92.65
25944;BME280;13742;49.306;8.636;2022-10-31T03:23:46;100933.20;;;12.96;92.81
25944;BME280;13742;49.306;8.636;2022-10-31T03:24:46;100933.14;;;12.96;92.86
25944;BME280;13742;49.306;8.636;2022-10-31T03:25:46;100933.41;;;12.98;92.98
25944;BME280;13742;49.306;8.636;2022-10-31T03:26:47;100929.23;;;12.97;93.09
25944;BME280;13742;49.306;8.636;2022-10-31T03:27:46;100928.71;;;12.98;93.01
25944;BME280;13742;49.306;8.636;2022-10-31T03:28:49;100928.18;;;12.98;92.80
25944;BME280;13742;49.306;8.636;2022-10-31T03:29:46;100925.03;;;12.98;92.97
25944;BME280;13742;49.306;8.636;2022-10-31T03:30:46;100927.28;;;12.98;92.61
25944;BME280;13742;49.306;8.636;2022-10-31T03:32:51;100930.16;;;12.96;92.72
25944;BME280;13742;49.306;8.636;2022-10-31T03:33:46;100928.61;;;12.96;92.86
25944;BME280;13742;49.306;8.636;2022-10-31T03:34:46;100930.27;;;12.96;93.31
25944;BME280;13742;49.306;8.636;2022-10-31T03:35:46;100925.70;;;12.97;93.25
25944;BME280;13742;49.306;8.636;2022-10-31T03:36:47;100929.17;;;12.98;93.19
25944;BME280;13742;49.306;8.636;2022-10-31T03:37:46;100925.97;;;12.99;92.89
25944;BME280;13742;49.306;8.636;2022-10-31T03:38:46;100926.94;;;12.99;92.70
25944;BME280;13742;49.306;8.636;2022-10-31T03:39:46;100926.71;;;13.00;92.88
25944;BME280;13742;49.306;8.636;2022-10-31T03:40:46;100928.34;;;12.99;92.78
25944;BME280;13742;49.306;8.636;2022-10-31T03:41:51;100925.92;;;12.99;92.66
25944;BME280;13742;49.306;8.636;2022-10-31T03:42:48;100928.19;;;12.99;92.74
25944;BME280;13742;49.306;8.636;2022-10-31T03:44:46;100926.52;;;12.98;92.78
25944;BME280;13742;49.306;8.636;2022-10-31T03:45:46;100928.44;;;12.98;92.58
25944;BME280;13742;49.306;8.636;2022-10-31T03:46:46;100927.00;;;12.98;92.54
25944;BME280;13742;49.306;8.636;2022-10-31T03:47:46;100925.70;;;12.97;92.56
25944;BME280;13742;49.306;8.636;2022-10-31T03:48:46;100927.20;;;12.97;92.39
25944;BME280;13742;49.306;8.636;2022-10-31T03:49:46;100929.22;;;12.96;92.42
25944;BME280;13742;49.306;8.636;2022-10-31T03:53:53;100923.79;;;12.93;93.14
25944;BME280;13742;49.306;8.636;2022-10-31T03:54:47;100922.09;;;12.91;93.27
25944;BME280;13742;49.306;8.636;2022-10-31T03:55:50;100922.75;;;12.91;93.18
25944;BME280;13742;49.306;8.636;2022-10-31T03:56:53;100921.26;;;12.91;93.26
25944;BME280;13742;49.306;8.636;2022-10-31T03:58:52;100918.05;;;12.91;93.10
25944;BME280;13742;49.306;8.636;2022-10-31T04:00:46;100919.14;;;12.90;93.24
25944;BME280;13742;49.306;8.636;2022-10-31T04:01:47;100917.23;;;12.91;93.54
25944;BME280;13742;49.306;8.636;2022-10-31T04:03:46;100912.59;;;12.91;94.05
25944;BME280;13742;49.306;8.636;2022-10-31T04:04:46;100914.42;;;12.92;94.09
25944;BME280;13742;49.306;8.636;2022-10-31T04:05:46;100909.98;;;12.93;94.06
25944;BME280;13742;49.306;8.636;2022-10-31T04:06:46;100913.78;;;12.95;94.25
25944;BME280;13742;49.306;8.636;2022-10-31T04:07:46;100911.13;;;12.95;94.16
25944;BME280;13742;49.306;8.636;2022-10-31T04:09:46;100907.47;;;12.97;94.14
25944;BME280;13742;49.306;8.636;2022-10-31T04:10:46;100907.30;;;12.97;94.33
25944;BME280;13742;49.306;8.636;2022-10-31T04:11:48;100911.33;;;12.99;94.45
25944;BME280;13742;49.306;8.636;2022-10-31T04:12:48;100911.91;;;13.00;94.48
25944;BME280;13742;49.306;8.636;2022-10-31T04:13:46;100904.66;;;13.00;94.45
25944;BME280;13742;49.306;8.636;2022-10-31T04:14:46;100906.55;;;12.99;94.23
25944;BME280;13742;49.306;8.636;2022-10-31T04:15:46;100906.13;;;12.98;94.27
25944;BME280;13742;49.306;8.636;2022-10-31T04:16:46;100905.08;;;12.99;94.44
25944;BME280;13742;49.306;8.636;2022-10-31T04:17:46;100902.89;;;12.99;94.72
25944;BME280;13742;49.306;8.636;2022-10-31T04:18:46;100905.84;;;13.01;94.31
25944;BME280;13742;49.306;8.636;2022-10-31T04:19:46;100902.02;;;13.00;94.23
25944;BME280;13742;49.306;8.636;2022-10-31T04:20:46;100902.32;;;12.99;94.27
25944;BME280;13742;49.306;8.636;2022-10-31T04:21:46;100901.68;;;13.00;94.25
25944;BME280;13742;49.306;8.636;2022-10-31T04:22:46;100897.52;;;12.98;94.09
25944;BME280;13742;49.306;8.636;2022-10-31T04:23:46;100895.53;;;12.97;94.18
25944;BME280;13742;49.306;8.636;2022-10-31T04:24:46;100898.88;;;12.96;94.19
25944;BME280;13742;49.306;8.636;2022-10-31T04:25:46;100899.44;;;12.96;94.21
25944;BME280;13742;49.306;8.636;2022-10-31T04:26:46;100898.64;;;12.95;93.92
25944;BME280;13742;49.306;8.636;2022-10-31T04:27:46;100900.41;;;12.95;93.94
25944;BME280;13742;49.306;8.636;2022-10-31T04:28:46;100901.47;;;12.93;94.21
25944;BME280;13742;49.306;8.636;2022-10-31T04:29:46;100900.23;;;12.92;94.00
25944;BME280;13742;49.306;8.636;2022-10-31T04:30:46;100897.28;;;12.91;94.11
25944;BME280;13742;49.306;8.636;2022-10-31T04:31:46;100902.75;;;12.91;94.38
25944;BME280;13742;49.306;8.636;2022-10-31T04:32:46;100898.97;;;12.90;94.53
25944;BME280;13742;49.306;8.636;2022-10-31T04:33:46;100899.08;;;12.90;94.09
25944;BME280;13742;49.306;8.636;2022-10-31T04:34:46;100900.33;;;12.89;94.26
25944;BME280;13742;49.306;8.636;2022-10-31T04:35:46;100899.44;;;12.88;94.29
25944;BME280;13742;49.306;8.636;2022-10-31T04:36:46;100897.24;;;12.86;94.41
25944;BME280;13742;49.306;8.636;2022-10-31T04:37:46;100898.16;;;12.85;94.77
25944;BME280;13742;49.306;8.636;2022-10-31T04:38:46;100897.28;;;12.86;94.78
25944;BME280;13742;49.306;8.636;2022-10-31T04:39:46;100899.17;;;12.86;94.71
25944;BME280;13742;49.306;8.636;2022-10-31T04:40:46;100900.42;;;12.85;94.58
25944;BME280;13742;49.306;8.636;2022-10-31T04:41:46;100902.59;;;12.84;94.24
25944;BME280;13742;49.306;8.636;2022-10-31T04:42:46;100904.72;;;12.83;94.30
25944;BME280;13742;49.306;8.636;2022-10-31T04:43:46;100904.14;;;12.82;94.33
25944;BME280;13742;49.306;8.636;2022-10-31T04:44:46;100902.11;;;12.80;94.20
25944;BME280;13742;49.306;8.636;2022-10-31T04:45:46;100905.89;;;12.81;94.08
25944;BME280;13742;49.306;8.636;2022-10-31T04:46:46;100906.56;;;12.79;94.38
25944;BME280;13742;49.306;8.636;2022-10-31T04:47:46;100906.69;;;12.77;94.19
25944;BME280;13742;49.306;8.636;2022-10-31T04:48:46;100909.50;;;12.77;94.20
25944;BME280;13742;49.306;8.636;2022-10-31T04:49:46;100908.57;;;12.75;93.85
25944;BME280;13742;49.306;8.636;2022-10-31T04:50:46;100908.30;;;12.73;94.07
25944;BME280;13742;49.306;8.636;2022-10-31T04:51:46;100906.13;;;12.72;94.25
25944;BME280;13742;49.306;8.636;2022-10-31T04:52:46;100906.79;;;12.72;94.22
25944;BME280;13742;49.306;8.636;2022-10-31T04:53:46;100907.18;;;12.70;94.05
25944;BME280;13742;49.306;8.636;2022-10-31T04:54:46;100907.44;;;12.69;94.14
25944;BME280;13742;49.306;8.636;2022-10-31T04:55:46;100906.86;;;12.68;94.08
25944;BME280;13742;49.306;8.636;2022-10-31T04:56:46;100906.72;;;12.67;94.12
25944;BME280;13742;49.306;8.636;2022-10-31T04:57:47;100906.56;;;12.65;94.28
25944;BME280;13742;49.306;8.636;2022-10-31T04:58:46;100906.68;;;12.65;94.27
25944;BME280;13742;49.306;8.636;2022-10-31T04:59:46;100905.49;;;12.64;94.24
25944;BME280;13742;49.306;8.636;2022-10-31T05:00:46;100910.80;;;12.65;94.85
25944;BME280;13742;49.306;8.636;2022-10-31T05:01:46;100910.52;;;12.64;94.66
25944;BME280;13742;49.306;8.636;2022-10-31T05:02:47;100913.28;;;12.64;94.24
25944;BME280;13742;49.306;8.636;2022-10-31T05:03:46;100911.80;;;12.64;94.42
25944;BME280;13742;49.306;8.636;2022-10-31T05:04:46;100916.52;;;12.64;94.32
25944;BME280;13742;49.306;8.636;2022-10-31T05:05:46;100915.86;;;12.64;94.37
25944;BME280;13742;49.306;8.636;2022-10-31T05:06:46;100912.45;;;12.64;94.19
25944;BME280;13742;49.306;8.636;2022-10-31T05:07:47;100912.23;;;12.64;94.30
25944;BME280;13742;49.306;8.636;2022-10-31T05:08:46;100912.97;;;12.65;94.45
25944;BME280;13742;49.306;8.636;2022-10-31T05:09:46;100913.94;;;12.66;94.32
25944;BME280;13742;49.306;8.636;2022-10-31T05:10:46;100910.26;;;12.67;94.51
25944;BME280;13742;49.306;8.636;2022-10-31T05:11:46;100914.02;;;12.67;94.04
25944;BME280;13742;49.306;8.636;2022-10-31T05:12:47;100912.17;;;12.66;93.82
25944;BME280;13742;49.306;8.636;2022-10-31T05:13:46;100909.91;;;12.66;93.71
25944;BME280;13742;49.306;8.636;2022-10-31T05:14:46;100914.13;;;12.67;93.87
25944;BME280;13742;49.306;8.636;2022-10-31T05:15:46;100916.22;;;12.67;93.80
25944;BME280;13742;49.306;8.636;2022-10-31T05:16:46;100916.97;;;12.68;93.92
25944;BME280;13742;49.306;8.636;2022-10-31T05:17:46;100914.98;;;12.68;93.72
25944;BME280;13742;49.306;8.636;2022-10-31T05:18:46;100916.27;;;12.69;93.77
25944;BME280;13742;49.306;8.636;2022-10-31T05:19:46;100915.30;;;12.70;93.66
25944;BME280;13742;49.306;8.636;2022-10-31T05:20:46;100918.15;;;12.69;93.77
25944;BME280;13742;49.306;8.636;2022-10-31T05:21:46;100918.04;;;12.69;93.49
25944;BME280;13742;49.306;8.636;2022-10-31T05:22:47;100914.28;;;12.69;93.54
25944;BME280;13742;49.306;8.636;2022-10-31T05:23:46;100918.81;;;12.69;93.38
25944;BME280;13742;49.306;8.636;2022-10-31T05:24:46;100917.73;;;12.68;93.11
25944;BME280;13742;49.306;8.636;2022-10-31T05:25:46;100916.23;;;12.67;93.12
25944;BME280;13742;49.306;8.636;2022-10-31T05:26:46;100914.02;;;12.67;93.13
25944;BME280;13742;49.306;8.636;2022-10-31T05:27:47;100917.38;;;12.67;92.90
25944;BME280;13742;49.306;8.636;2022-10-31T05:28:46;100916.09;;;12.66;92.89
25944;BME280;13742;49.306;8.636;2022-10-31T05:29:46;100917.02;;;12.62;92.73
25944;BME280;13742;49.306;8.636;2022-10-31T05:30:46;100912.79;;;12.55;93.16
25944;BME280;13742;49.306;8.636;2022-10-31T05:31:46;100911.56;;;12.50;93.18
25944;BME280;13742;49.306;8.636;2022-10-31T05:32:46;100914.05;;;12.33;93.81
25944;BME280;13742;49.306;8.636;2022-10-31T05:33:46;100912.71;;;12.37;93.94
25944;BME280;13742;49.306;8.636;2022-10-31T05:34:46;100908.84;;;12.37;93.26
25944;BME280;13742;49.306;8.636;2022-10-31T05:35:46;100910.26;;;12.36;93.22
25944;BME280;13742;49.306;8.636;2022-10-31T05:36:46;100904.97;;;12.34;92.40
25944;BME280;13742;49.306;8.636;2022-10-31T05:37:46;100903.81;;;12.33;92.70
25944;BME280;13742;49.306;8.636;2022-10-31T05:38:46;100904.56;;;12.32;92.63
25944;BME280;13742;49.306;8.636;2022-10-31T05:39:46;100901.83;;;12.31;92.99
25944;BME280;13742;49.306;8.636;2022-10-31T05:40:46;100904.31;;;12.30;92.72
25944;BME280;13742;49.306;8.636;2022-10-31T05:41:46;100901.34;;;12.29;92.78
25944;BME280;13742;49.306;8.636;2022-10-31T05:42:46;100900.67;;;12.28;92.65
25944;BME280;13742;49.306;8.636;2022-10-31T05:43:46;100905.34;;;12.27;92.72
25944;BME280;13742;49.306;8.636;2022-10-31T05:44:46;100905.26;;;12.28;92.85
25944;BME280;13742;49.306;8.636;2022-10-31T05:45:46;100904.63;;;12.28;92.86
25944;BME280;13742;49.306;8.636;2022-10-31T05:46:46;100903.58;;;12.27;92.71
25944;BME280;13742;49.306;8.636;2022-10-31T05:48:46;100903.08;;;12.27;92.47
25944;BME280;13742;49.306;8.636;2022-10-31T05:49:46;100905.05;;;12.27;92.50
25944;BME280;13742;49.306;8.636;2022-10-31T05:50:47;100903.42;;;12.24;92.20
25944;BME280;13742;49.306;8.636;2022-10-31T05:51:46;100902.48;;;12.24;92.32
25944;BME280;13742;49.306;8.636;2022-10-31T05:52:46;100899.15;;;12.23;92.26
25944;BME280;13742;49.306;8.636;2022-10-31T05:53:46;100901.80;;;12.22;91.99
25944;BME280;13742;49.306;8.636;2022-10-31T05:54:46;100903.40;;;12.21;91.79